createdAt,value
2022-10-06T00:01:06.165Z,100110.08
2022-10-06T00:03:10.995Z,100112.59
2022-10-06T00:05:16.066Z,100118.33
2022-10-06T00:07:20.825Z,100129.15
2022-10-06T00:09:25.684Z,100142.70
2022-10-06T00:11:30.552Z,100148.70
2022-10-06T00:13:36.182Z,100144.55
2022-10-06T00:15:41.062Z,100141.83
2022-10-06T00:17:45.958Z,100145.00
2022-10-06T00:19:50.614Z,100153.69
2022-10-06T00:21:55.433Z,100156.27
2022-10-06T00:24:00.208Z,100157.04
2022-10-06T00:26:05.197Z,100155.45
2022-10-06T00:28:10.438Z,100154.30
2022-10-06T00:30:17.886Z,100160.10
2022-10-06T00:32:22.737Z,100163.52
2022-10-06T00:34:27.734Z,100167.27
2022-10-06T00:36:32.800Z,100172.61
2022-10-06T00:38:37.996Z,100169.47
2022-10-06T00:40:47.864Z,100165.45
2022-10-06T00:42:55.623Z,100168.05
2022-10-06T00:45:03.704Z,100165.31
2022-10-06T00:47:08.442Z,100163.45
2022-10-06T00:49:18.077Z,100163.11
2022-10-06T00:51:23.718Z,100159.04
2022-10-06T00:53:30.215Z,100162.55
2022-10-06T00:55:35.296Z,100165.36
2022-10-06T00:57:41.747Z,100161.62
2022-10-06T00:59:47.201Z,100159.50
2022-10-06T01:01:59.982Z,100154.64
2022-10-06T01:04:11.379Z,100156.99
2022-10-06T01:06:16.402Z,100148.42
2022-10-06T01:08:23.827Z,100148.02
2022-10-06T01:10:28.943Z,100147.20
2022-10-06T01:12:35.295Z,100142.33
2022-10-06T01:14:41.497Z,100145.37
2022-10-06T01:16:51.483Z,100148.79
2022-10-06T01:18:57.971Z,100151.55
2022-10-06T01:21:09.939Z,100151.38
2022-10-06T01:23:17.075Z,100153.77
2022-10-06T01:25:22.952Z,100155.23
2022-10-06T01:27:31.461Z,100160.21
2022-10-06T01:29:37.408Z,100160.27
2022-10-06T01:31:42.588Z,100163.91
2022-10-06T01:33:53.091Z,100162.61
2022-10-06T01:35:58.281Z,100165.70
2022-10-06T01:38:02.982Z,100166.34
2022-10-06T01:40:10.009Z,100164.31
2022-10-06T01:42:15.319Z,100166.02
2022-10-06T01:44:20.090Z,100165.71
2022-10-06T01:46:24.838Z,100168.87
2022-10-06T01:48:30.428Z,100167.81
2022-10-06T01:50:36.539Z,100169.56
2022-10-06T01:52:41.444Z,100165.84
2022-10-06T01:54:47.077Z,100164.32
2022-10-06T01:56:53.035Z,100166.19
2022-10-06T01:58:58.743Z,100165.77
2022-10-06T02:01:08.068Z,100166.17
2022-10-06T02:03:13.415Z,100169.66
2022-10-06T02:05:20.315Z,100169.70
2022-10-06T02:07:28.296Z,100168.35
2022-10-06T02:09:33.117Z,100169.65
2022-10-06T02:11:42.049Z,100169.48
2022-10-06T02:13:46.968Z,100174.79
2022-10-06T02:15:54.884Z,100174.64
2022-10-06T02:18:00.002Z,100178.66
2022-10-06T02:20:06.052Z,100174.14
2022-10-06T02:22:10.985Z,100174.20
2022-10-06T02:24:15.813Z,100172.45
2022-10-06T02:26:21.147Z,100173.85
2022-10-06T02:28:26.628Z,100172.70
2022-10-06T02:30:32.131Z,100174.15
2022-10-06T02:32:39.429Z,100181.87
2022-10-06T02:34:44.773Z,100180.08
2022-10-06T02:36:49.681Z,100179.64
2022-10-06T02:38:54.492Z,100174.98
2022-10-06T02:41:00.185Z,100171.30
2022-10-06T02:43:05.045Z,100172.95
2022-10-06T02:45:11.111Z,100168.72
2022-10-06T02:47:16.714Z,100173.06
2022-10-06T02:49:21.610Z,100175.89
2022-10-06T02:51:26.606Z,100179.42
2022-10-06T02:53:31.979Z,100182.72
2022-10-06T02:55:37.069Z,100189.95
2022-10-06T02:57:41.976Z,100191.85
2022-10-06T02:59:47.347Z,100187.63
2022-10-06T03:01:52.667Z,100189.09
2022-10-06T03:04:00.686Z,100190.85
2022-10-06T03:06:08.260Z,100191.30
2022-10-06T03:08:14.196Z,100194.60
2022-10-06T03:10:19.015Z,100200.22
2022-10-06T03:12:24.019Z,100202.72
2022-10-06T03:14:29.866Z,100199.66
2022-10-06T03:16:37.053Z,100203.06
2022-10-06T03:18:43.015Z,100205.92
2022-10-06T03:20:47.854Z,100208.67
2022-10-06T03:22:54.905Z,100210.11
2022-10-06T03:24:59.729Z,100213.00
2022-10-06T03:27:07.534Z,100213.15
2022-10-06T03:29:12.937Z,100212.33
2022-10-06T03:31:20.899Z,100210.70
2022-10-06T03:33:25.870Z,100211.35
2022-10-06T03:35:30.700Z,100211.02
2022-10-06T03:37:36.367Z,100212.06
2022-10-06T03:39:41.149Z,100216.77
2022-10-06T03:41:46.134Z,100214.67
2022-10-06T03:43:53.162Z,100215.48
2022-10-06T03:45:59.361Z,100219.73
2022-10-06T03:48:04.186Z,100221.61
2022-10-06T03:50:10.911Z,100223.20
2022-10-06T03:52:16.035Z,100220.97
2022-10-06T03:54:21.126Z,100225.45
2022-10-06T03:56:29.059Z,100230.08
2022-10-06T03:58:35.739Z,100237.89
2022-10-06T04:00:40.518Z,100238.44
2022-10-06T04:02:45.291Z,100233.29
2022-10-06T04:04:50.273Z,100229.64
2022-10-06T04:06:55.407Z,100236.88
2022-10-06T04:09:00.749Z,100239.95
2022-10-06T04:11:10.721Z,100235.89
2022-10-06T04:13:17.519Z,100239.83
2022-10-06T04:15:22.397Z,100237.15
2022-10-06T04:17:27.336Z,100238.47
2022-10-06T04:19:32.178Z,100239.20
2022-10-06T04:21:39.729Z,100248.85
2022-10-06T04:23:47.030Z,100247.99
2022-10-06T04:25:57.819Z,100251.03
2022-10-06T04:28:02.651Z,100249.84
2022-10-06T04:30:09.217Z,100249.77
2022-10-06T04:32:14.214Z,100251.71
2022-10-06T04:34:18.911Z,100252.21
2022-10-06T04:36:25.920Z,100249.59
2022-10-06T04:38:33.905Z,100252.63
2022-10-06T04:40:38.613Z,100255.75
2022-10-06T04:42:43.470Z,100254.88
2022-10-06T04:44:51.329Z,100262.84
2022-10-06T04:46:56.208Z,100265.27
2022-10-06T04:49:01.231Z,100265.73
2022-10-06T04:51:11.217Z,100270.43
2022-10-06T04:53:16.219Z,100269.20
2022-10-06T04:55:21.317Z,100269.23
2022-10-06T04:57:26.262Z,100266.52
2022-10-06T04:59:31.332Z,100268.88
2022-10-06T05:01:37.809Z,100267.62
2022-10-06T05:03:47.774Z,100273.64
2022-10-06T05:05:52.756Z,100272.95
2022-10-06T05:07:57.970Z,100278.41
2022-10-06T05:10:03.428Z,100280.80
2022-10-06T05:12:09.159Z,100282.48
2022-10-06T05:14:13.838Z,100287.95
2022-10-06T05:16:22.665Z,100283.95
2022-10-06T05:18:28.663Z,100290.22
2022-10-06T05:20:33.578Z,100291.27
2022-10-06T05:22:38.418Z,100291.76
2022-10-06T05:24:43.321Z,100296.63
2022-10-06T05:26:49.086Z,100299.45
2022-10-06T05:28:54.098Z,100296.93
2022-10-06T05:31:03.792Z,100299.09
2022-10-06T05:33:09.885Z,100302.23
2022-10-06T05:35:14.766Z,100309.80
2022-10-06T05:37:19.563Z,100320.71
2022-10-06T05:39:24.490Z,100317.16
2022-10-06T05:41:34.711Z,100317.65
2022-10-06T05:43:42.452Z,100324.55
2022-10-06T05:45:56.748Z,100324.88
2022-10-06T05:48:01.622Z,100332.24
2022-10-06T05:50:08.671Z,100332.73
2022-10-06T05:52:13.523Z,100334.77
2022-10-06T05:54:18.967Z,100337.26
2022-10-06T05:56:25.413Z,100338.69
2022-10-06T05:58:31.514Z,100339.31
2022-10-06T06:00:36.904Z,100340.75
2022-10-06T06:02:41.948Z,100344.32
2022-10-06T06:04:48.626Z,100344.15
2022-10-06T06:06:54.344Z,100344.33
2022-10-06T06:09:04.422Z,100345.52
2022-10-06T06:11:09.695Z,100348.08
2022-10-06T06:13:19.527Z,100349.71
2022-10-06T06:15:32.107Z,100356.70
2022-10-06T06:17:39.696Z,100356.38
2022-10-06T06:19:44.727Z,100355.73
2022-10-06T06:21:49.761Z,100361.61
2022-10-06T06:23:54.994Z,100361.88
2022-10-06T06:26:02.634Z,100365.20
2022-10-06T06:28:08.372Z,100366.77
2022-10-06T06:30:14.750Z,100371.64
2022-10-06T06:32:19.596Z,100371.79
2022-10-06T06:34:25.201Z,100374.25
2022-10-06T06:36:31.784Z,100380.96
2022-10-06T06:38:36.651Z,100378.80
2022-10-06T06:40:43.187Z,100383.15
2022-10-06T06:42:53.570Z,100388.34
2022-10-06T06:45:32.054Z,100391.90
2022-10-06T06:47:41.517Z,100393.11
2022-10-06T06:49:46.377Z,100392.83
2022-10-06T06:51:51.605Z,100394.96
2022-10-06T06:53:58.738Z,100400.31
2022-10-06T06:56:04.244Z,100397.30
2022-10-06T06:58:10.537Z,100397.97
2022-10-06T07:00:15.974Z,100400.02
2022-10-06T07:02:20.832Z,100397.11
2022-10-06T07:04:26.702Z,100395.55
2022-10-06T07:06:32.147Z,100399.05
2022-10-06T07:08:41.171Z,100402.14
2022-10-06T07:10:46.318Z,100403.77
2022-10-06T07:12:51.174Z,100400.31
2022-10-06T07:14:55.806Z,100403.34
2022-10-06T07:17:01.083Z,100406.11
2022-10-06T07:19:07.454Z,100401.92
2022-10-06T07:21:13.921Z,100403.27
2022-10-06T07:23:21.062Z,100403.78
2022-10-06T07:25:27.022Z,100406.30
2022-10-06T07:27:44.158Z,100406.71
2022-10-06T07:29:51.514Z,100405.70
2022-10-06T07:31:56.785Z,100406.77
2022-10-06T07:34:02.403Z,100405.99
2022-10-06T07:36:07.768Z,100405.84
2022-10-06T07:38:13.887Z,100406.74
2022-10-06T07:40:24.798Z,100411.73
2022-10-06T07:42:29.570Z,100412.64
2022-10-06T07:44:34.343Z,100410.98
2022-10-06T07:46:39.425Z,100411.27
2022-10-06T07:48:50.569Z,100408.17
2022-10-06T07:50:55.256Z,100407.67
2022-10-06T07:53:04.143Z,100406.23
2022-10-06T07:55:10.852Z,100410.60
2022-10-06T07:57:20.423Z,100416.58
2022-10-06T07:59:25.133Z,100408.94
2022-10-06T08:01:30.024Z,100409.50
2022-10-06T08:03:36.970Z,100413.18
2022-10-06T08:05:41.757Z,100413.17
2022-10-06T08:07:46.409Z,100414.95
2022-10-06T08:09:51.187Z,100417.23
2022-10-06T08:11:55.873Z,100417.88
2022-10-06T08:14:00.927Z,100417.07
2022-10-06T08:16:10.836Z,100416.13
2022-10-06T08:18:33.796Z,100420.44
2022-10-06T08:20:42.269Z,100419.64
2022-10-06T08:22:49.347Z,100421.65
2022-10-06T08:25:05.856Z,100418.46
2022-10-06T08:27:11.141Z,100427.11
2022-10-06T08:29:15.806Z,100431.53
2022-10-06T08:31:22.545Z,100430.98
2022-10-06T08:33:27.400Z,100429.38
2022-10-06T08:35:32.118Z,100428.70
2022-10-06T08:37:36.853Z,100430.37
2022-10-06T08:39:41.794Z,100435.44
2022-10-06T08:41:50.437Z,100432.42
2022-10-06T08:43:59.926Z,100431.54
2022-10-06T08:46:05.472Z,100429.48
2022-10-06T08:48:13.630Z,100431.86
2022-10-06T08:50:18.849Z,100432.19
2022-10-06T08:52:48.087Z,100424.55
2022-10-06T08:55:00.801Z,100430.67
2022-10-06T08:57:14.419Z,100433.04
2022-10-06T08:59:19.252Z,100438.05
2022-10-06T09:01:26.438Z,100435.73
2022-10-06T09:03:31.705Z,100433.11
2022-10-06T09:05:36.622Z,100430.86
2022-10-06T09:07:51.113Z,100434.92
2022-10-06T09:10:08.461Z,100438.66
2022-10-06T09:12:19.651Z,100443.67
2022-10-06T09:14:31.968Z,100439.77
2022-10-06T09:16:40.035Z,100439.03
2022-10-06T09:19:07.258Z,100433.36
2022-10-06T09:21:16.986Z,100432.98
2022-10-06T09:23:21.685Z,100435.98
2022-10-06T09:25:28.017Z,100437.39
2022-10-06T09:27:34.371Z,100435.80
2022-10-06T09:29:39.220Z,100432.63
2022-10-06T09:31:45.930Z,100435.95
2022-10-06T09:33:52.846Z,100436.58
2022-10-06T09:36:11.833Z,100435.73
2022-10-06T09:38:16.646Z,100436.39
2022-10-06T09:40:36.468Z,100435.94
2022-10-06T09:42:46.671Z,100437.28
2022-10-06T09:45:03.055Z,100440.56
2022-10-06T09:47:30.640Z,100437.97
2022-10-06T09:49:35.407Z,100442.98
2022-10-06T09:51:40.556Z,100444.80
2022-10-06T09:54:03.380Z,100448.58
2022-10-06T09:56:14.660Z,100451.39
2022-10-06T09:58:31.766Z,100453.89
2022-10-06T10:00:39.809Z,100454.89
2022-10-06T10:02:45.048Z,100454.46
2022-10-06T10:04:55.891Z,100459.55
2022-10-06T10:07:21.562Z,100458.41
2022-10-06T10:09:30.110Z,100463.13
2022-10-06T10:11:34.977Z,100463.98
2022-10-06T10:13:45.354Z,100463.48
2022-10-06T10:15:56.312Z,100463.22
2022-10-06T10:18:04.768Z,100469.93
2022-10-06T10:20:25.947Z,100467.36
2022-10-06T10:22:35.822Z,100468.77
2022-10-06T10:24:53.642Z,100469.05
2022-10-06T10:27:05.636Z,100472.23
2022-10-06T10:29:36.179Z,100471.27
2022-10-06T10:31:52.519Z,100479.03
2022-10-06T10:34:12.630Z,100472.63
2022-10-06T10:36:36.612Z,100470.64
2022-10-06T10:38:44.015Z,100476.84
2022-10-06T10:40:52.525Z,100475.81
2022-10-06T10:43:04.727Z,100473.19
2022-10-06T10:45:17.841Z,100474.95
2022-10-06T10:47:27.385Z,100476.71
2022-10-06T10:49:34.665Z,100473.63
2022-10-06T10:51:47.377Z,100475.52
2022-10-06T10:53:58.549Z,100478.52
2022-10-06T10:56:06.525Z,100473.00
2022-10-06T10:58:18.114Z,100468.38
2022-10-06T11:00:25.805Z,100469.14
2022-10-06T11:02:31.892Z,100478.14
2022-10-06T11:04:40.765Z,100469.44
2022-10-06T11:07:01.875Z,100465.15
2022-10-06T11:09:12.070Z,100464.85
2022-10-06T11:11:28.017Z,100463.41
2022-10-06T11:13:39.422Z,100454.86
2022-10-06T11:15:56.772Z,100457.52
2022-10-06T11:18:13.220Z,100455.55
2022-10-06T11:20:36.686Z,100458.58
2022-10-06T11:22:47.139Z,100460.14
2022-10-06T11:24:59.233Z,100458.33
2022-10-06T11:27:32.002Z,100460.77
2022-10-06T11:29:47.634Z,100458.60
2022-10-06T11:32:03.123Z,100462.70
2022-10-06T11:34:09.877Z,100457.55
2022-10-06T11:36:21.032Z,100469.30
2022-10-06T11:38:30.509Z,100458.35
2022-10-06T11:40:56.516Z,100452.79
2022-10-06T11:43:07.338Z,100457.36
2022-10-06T11:45:15.724Z,100452.52
2022-10-06T11:47:35.088Z,100452.20
2022-10-06T11:49:54.753Z,100461.55
2022-10-06T11:52:44.310Z,100456.05
2022-10-06T11:54:52.821Z,100460.83
2022-10-06T11:56:57.751Z,100461.21
2022-10-06T11:59:12.202Z,100457.39
2022-10-06T12:01:54.913Z,100457.30
2022-10-06T12:04:18.513Z,100455.19
2022-10-06T12:07:05.858Z,100452.28
2022-10-06T12:09:45.138Z,100446.77
2022-10-06T12:11:50.603Z,100440.24
2022-10-06T12:17:05.986Z,100446.62
2022-10-06T12:19:07.429Z,100444.89
2022-10-06T12:21:20.997Z,100444.69
2022-10-06T12:23:48.719Z,100442.30
2022-10-06T12:25:59.273Z,100441.21
2022-10-06T12:28:15.053Z,100443.52
2022-10-06T12:30:24.590Z,100440.45
2022-10-06T12:32:45.197Z,100443.96
2022-10-06T12:35:08.978Z,100440.17
2022-10-06T12:37:50.113Z,100431.23
2022-10-06T12:40:28.768Z,100430.27
2022-10-06T12:42:33.472Z,100424.17
2022-10-06T12:44:45.272Z,100426.75
2022-10-06T12:46:51.555Z,100428.11
2022-10-06T12:49:03.058Z,100429.68
2022-10-06T12:51:19.451Z,100431.73
2022-10-06T12:53:28.897Z,100425.81
2022-10-06T12:55:46.675Z,100430.27
2022-10-06T12:57:52.837Z,100433.17
2022-10-06T12:59:58.145Z,100435.73
2022-10-06T13:02:07.772Z,100434.68
2022-10-06T13:04:32.108Z,100428.19
2022-10-06T13:06:37.434Z,100440.05
2022-10-06T13:08:42.372Z,100432.09
2022-10-06T13:10:47.121Z,100431.77
2022-10-06T13:12:54.965Z,100426.17
2022-10-06T13:15:16.375Z,100422.08
2022-10-06T13:17:21.789Z,100422.95
2022-10-06T13:19:28.567Z,100425.80
2022-10-06T13:21:35.458Z,100426.45
2022-10-06T13:23:41.066Z,100420.40
2022-10-06T13:25:47.992Z,100426.90
2022-10-06T13:27:52.942Z,100424.10
2022-10-06T13:30:17.266Z,100422.73
2022-10-06T13:32:25.814Z,100424.64
2022-10-06T13:34:33.061Z,100417.75
2022-10-06T13:36:40.301Z,100420.02
2022-10-06T13:38:45.094Z,100424.90
2022-10-06T13:41:16.710Z,100423.02
2022-10-06T13:43:21.396Z,100418.98
2022-10-06T13:45:26.832Z,100424.76
2022-10-06T13:47:31.978Z,100424.87
2022-10-06T13:49:44.262Z,100420.56
2022-10-06T13:51:51.337Z,100419.90
2022-10-06T13:53:56.590Z,100417.77
2022-10-06T13:56:01.550Z,100415.75
2022-10-06T13:58:17.087Z,100417.98
2022-10-06T14:00:23.770Z,100417.30
2022-10-06T14:02:31.680Z,100422.52
2022-10-06T14:04:38.932Z,100418.48
2022-10-06T14:06:52.722Z,100423.71
2022-10-06T14:08:59.295Z,100420.52
2022-10-06T14:11:05.919Z,100423.23
2022-10-06T14:13:16.105Z,100426.55
2022-10-06T14:15:24.779Z,100427.51
2022-10-06T14:17:30.176Z,100430.77
2022-10-06T14:19:38.173Z,100424.87
2022-10-06T14:21:43.924Z,100425.45
2022-10-06T14:23:51.922Z,100427.97
2022-10-06T14:25:56.598Z,100428.83
2022-10-06T14:28:03.255Z,100428.98
2022-10-06T14:30:10.778Z,100431.64
2022-10-06T14:32:17.229Z,100433.37
2022-10-06T14:34:23.130Z,100430.20
2022-10-06T14:36:29.274Z,100437.17
2022-10-06T14:38:34.063Z,100434.17
2022-10-06T14:40:41.970Z,100438.80
2022-10-06T14:44:56.677Z,100437.65
2022-10-06T14:47:01.874Z,100436.71
2022-10-06T14:49:09.091Z,100434.20
2022-10-06T14:51:13.786Z,100433.71
2022-10-06T14:53:18.669Z,100435.35
2022-10-06T14:55:23.626Z,100435.23
2022-10-06T14:58:13.607Z,100434.09
2022-10-06T15:00:18.647Z,100434.05
2022-10-06T15:02:25.810Z,100437.26
2022-10-06T15:04:30.704Z,100438.27
2022-10-06T15:06:35.403Z,100436.82
2022-10-06T15:08:40.083Z,100438.73
2022-10-06T15:10:52.868Z,100436.91
2022-10-06T15:12:58.034Z,100441.08
2022-10-06T15:15:02.742Z,100438.89
2022-10-06T15:17:07.632Z,100438.67
2022-10-06T15:19:12.734Z,100441.71
2022-10-06T15:21:18.022Z,100442.25
2022-10-06T15:23:22.890Z,100444.02
2022-10-06T15:25:27.645Z,100449.20
2022-10-06T15:27:32.337Z,100448.50
2022-10-06T15:29:37.297Z,100449.38
2022-10-06T15:31:44.399Z,100453.61
2022-10-06T15:33:53.017Z,100452.80
2022-10-06T15:36:16.482Z,100453.44
2022-10-06T15:38:21.369Z,100460.64
2022-10-06T15:40:26.425Z,100457.50
2022-10-06T15:42:31.283Z,100458.78
2022-10-06T15:44:36.467Z,100456.66
2022-10-06T15:46:43.681Z,100457.52
2022-10-06T15:48:48.447Z,100456.58
2022-10-06T15:50:53.249Z,100459.13
2022-10-06T15:52:57.913Z,100460.85
2022-10-06T15:55:02.644Z,100459.17
2022-10-06T15:57:09.405Z,100459.02
2022-10-06T15:59:14.399Z,100460.51
2022-10-06T16:01:44.962Z,100464.58
2022-10-06T16:03:49.846Z,100465.58
2022-10-06T16:05:54.553Z,100467.39
2022-10-06T16:07:59.202Z,100471.77
2022-10-06T16:10:04.160Z,100470.01
2022-10-06T16:12:11.052Z,100473.72
2022-10-06T16:14:16.725Z,100473.67
2022-10-06T16:16:21.614Z,100473.91
2022-10-06T16:18:26.371Z,100475.17
2022-10-06T16:20:31.107Z,100476.70
2022-10-06T16:22:36.250Z,100480.02
2022-10-06T16:24:41.155Z,100481.49
2022-10-06T16:26:46.580Z,100484.02
2022-10-06T16:28:51.975Z,100487.00
2022-10-06T16:30:57.841Z,100492.84
2022-10-06T16:33:02.756Z,100495.98
2022-10-06T16:35:08.843Z,100496.16
2022-10-06T16:37:13.496Z,100499.09
2022-10-06T16:39:19.757Z,100501.04
2022-10-06T16:41:24.758Z,100504.46
2022-10-06T16:43:34.030Z,100504.44
2022-10-06T16:45:38.682Z,100508.39
2022-10-06T16:47:43.384Z,100513.90
2022-10-06T16:49:48.157Z,100518.77
2022-10-06T16:51:52.834Z,100520.01
2022-10-06T16:53:59.327Z,100520.30
2022-10-06T16:56:04.748Z,100520.04
2022-10-06T16:58:12.320Z,100524.52
2022-10-06T17:00:17.676Z,100518.77
2022-10-06T17:02:22.338Z,100521.80
2022-10-06T17:04:27.142Z,100517.28
2022-10-06T17:06:33.850Z,100517.39
2022-10-06T17:08:38.899Z,100520.54
2022-10-06T17:10:43.527Z,100521.31
2022-10-06T17:12:48.289Z,100517.98
2022-10-06T17:14:53.009Z,100524.02
2022-10-06T17:16:58.838Z,100524.65
2022-10-06T17:19:03.966Z,100531.42
2022-10-06T17:21:32.320Z,100530.59
2022-10-06T17:23:35.930Z,100529.70
2022-10-06T17:25:40.590Z,100534.28
2022-10-06T17:27:45.210Z,100534.67
2022-10-06T17:29:49.871Z,100535.21
2022-10-06T17:31:54.750Z,100533.79
2022-10-06T17:33:59.923Z,100534.56
2022-10-06T17:36:10.618Z,100537.74
2022-10-06T17:38:15.415Z,100543.60
2022-10-06T17:40:20.234Z,100544.05
2022-10-06T17:42:25.302Z,100541.64
2022-10-06T17:44:31.098Z,100541.94
2022-10-06T17:46:39.606Z,100541.64
2022-10-06T17:48:46.426Z,100537.81
2022-10-06T17:51:00.167Z,100539.98
2022-10-06T17:53:05.378Z,100544.00
2022-10-06T17:55:11.081Z,100544.92
2022-10-06T17:57:16.499Z,100544.34
2022-10-06T17:59:23.389Z,100546.52
2022-10-06T18:01:33.025Z,100546.70
2022-10-06T18:03:40.392Z,100546.75
2022-10-06T18:05:54.664Z,100548.41
2022-10-06T18:07:59.517Z,100545.95
2022-10-06T18:10:05.814Z,100544.07
2022-10-06T18:12:10.988Z,100546.84
2022-10-06T18:14:18.335Z,100542.18
2022-10-06T18:16:26.955Z,100544.15
2022-10-06T18:18:32.475Z,100545.06
2022-10-06T18:20:38.013Z,100543.36
2022-10-06T18:22:43.914Z,100542.61
2022-10-06T18:24:49.531Z,100543.23
2022-10-06T18:26:56.102Z,100542.80
2022-10-06T18:29:01.374Z,100542.45
2022-10-06T18:31:07.587Z,100545.08
2022-10-06T18:36:10.761Z,100545.56
2022-10-06T18:38:03.305Z,100551.95
2022-10-06T18:40:11.582Z,100554.44
2022-10-06T18:42:17.073Z,100553.58
2022-10-06T18:44:22.443Z,100558.80
2022-10-06T18:46:28.366Z,100563.96
2022-10-06T18:48:33.290Z,100559.86
2022-10-06T18:50:38.326Z,100560.59
2022-10-06T18:52:43.617Z,100565.06
2022-10-06T18:54:48.821Z,100563.80
2022-10-06T18:56:56.720Z,100563.38
2022-10-06T18:59:06.047Z,100563.69
2022-10-06T19:01:15.326Z,100561.33
2022-10-06T19:03:23.326Z,100561.17
2022-10-06T19:05:29.341Z,100563.53
2022-10-06T19:07:36.198Z,100564.59
2022-10-06T19:09:46.252Z,100561.94
2022-10-06T19:11:53.838Z,100561.71
2022-10-06T19:13:59.407Z,100553.95
2022-10-06T19:16:07.632Z,100558.45
2022-10-06T19:18:16.266Z,100553.33
2022-10-06T19:20:21.392Z,100556.78
2022-10-06T19:22:28.902Z,100557.66
2022-10-06T19:24:37.448Z,100557.95
2022-10-06T19:26:49.344Z,100555.90
2022-10-06T19:28:55.198Z,100557.55
2022-10-06T19:31:04.233Z,100561.42
2022-10-06T19:33:10.877Z,100566.50
2022-10-06T19:35:16.472Z,100568.55
2022-10-06T19:37:24.974Z,100572.85
2022-10-06T19:39:32.447Z,100570.66
2022-10-06T19:41:39.128Z,100567.63
2022-10-06T19:43:45.469Z,100574.23
2022-10-06T19:46:01.872Z,100573.06
2022-10-06T19:48:07.311Z,100576.56
2022-10-06T19:50:13.041Z,100579.73
2022-10-06T19:52:18.265Z,100578.16
2022-10-06T19:54:23.604Z,100580.98
2022-10-06T19:56:28.946Z,100582.64
2022-10-06T19:58:34.459Z,100578.71
2022-10-06T20:00:39.655Z,100584.92
2022-10-06T20:02:45.150Z,100582.66
2022-10-06T20:04:50.370Z,100584.17
2022-10-06T20:06:55.745Z,100581.72
2022-10-06T20:09:01.291Z,100587.19
2022-10-06T20:11:08.553Z,100588.98
2022-10-06T20:13:13.553Z,100589.60
2022-10-06T20:15:19.030Z,100584.68
2022-10-06T20:17:23.818Z,100583.98
2022-10-06T20:19:28.554Z,100586.55
2022-10-06T20:21:33.897Z,100589.70
2022-10-06T20:23:38.658Z,100590.16
2022-10-06T20:25:43.413Z,100599.61
2022-10-06T20:27:48.146Z,100599.29
2022-10-06T20:29:52.873Z,100598.84
2022-10-06T20:31:58.625Z,100603.35
2022-10-06T20:34:05.594Z,100601.42
2022-10-06T20:36:11.318Z,100597.66
2022-10-06T20:38:16.233Z,100597.45
2022-10-06T20:40:23.710Z,100600.88
2022-10-06T20:42:28.433Z,100594.58
2022-10-06T20:44:33.344Z,100596.56
2022-10-06T20:46:40.068Z,100601.27
2022-10-06T20:48:44.722Z,100599.02
2022-10-06T20:50:49.446Z,100593.95
2022-10-06T20:52:54.238Z,100591.52
2022-10-06T20:54:58.875Z,100593.70
2022-10-06T20:57:05.159Z,100590.09
2022-10-06T20:59:12.387Z,100589.69
2022-10-06T21:01:18.649Z,100588.12
2022-10-06T21:03:23.490Z,100590.81
2022-10-06T21:05:28.318Z,100591.41
2022-10-06T21:07:33.155Z,100593.69
2022-10-06T21:09:37.950Z,100592.83
2022-10-06T21:11:42.903Z,100595.11
2022-10-06T21:13:48.452Z,100594.77
2022-10-06T21:15:53.352Z,100592.91
2022-10-06T21:17:58.428Z,100589.20
2022-10-06T21:20:03.389Z,100586.86
2022-10-06T21:22:08.174Z,100587.02
2022-10-06T21:24:13.355Z,100586.33
2022-10-06T21:26:19.962Z,100586.79
2022-10-06T21:28:25.315Z,100588.55
2022-10-06T21:30:31.382Z,100582.38
2022-10-06T21:32:36.073Z,100579.48
2022-10-06T21:34:40.865Z,100579.09
2022-10-06T21:36:46.116Z,100580.89
2022-10-06T21:38:53.512Z,100580.72
2022-10-06T21:41:02.955Z,100582.86
2022-10-06T21:43:07.775Z,100582.45
2022-10-06T21:45:12.747Z,100581.86
2022-10-06T21:47:17.580Z,100575.44
2022-10-06T21:49:23.904Z,100575.40
2022-10-06T21:51:30.141Z,100571.14
2022-10-06T21:53:34.876Z,100570.87
2022-10-06T21:55:39.629Z,100570.14
2022-10-06T21:57:44.598Z,100570.77
2022-10-06T21:59:50.059Z,100568.69
2022-10-06T22:01:54.939Z,100569.45
2022-10-06T22:04:00.317Z,100567.21
2022-10-06T22:06:06.910Z,100571.85
2022-10-06T22:08:11.629Z,100568.41
2022-10-06T22:10:16.555Z,100565.67
2022-10-06T22:12:21.407Z,100567.14
2022-10-06T22:14:26.478Z,100564.07
2022-10-06T22:16:33.892Z,100563.39
2022-10-06T22:18:40.156Z,100567.04
2022-10-06T22:20:45.035Z,100564.77
2022-10-06T22:22:50.791Z,100559.41
2022-10-06T22:24:55.529Z,100561.16
2022-10-06T22:27:00.311Z,100558.43
2022-10-06T22:29:06.713Z,100558.20
2022-10-06T22:31:12.965Z,100556.75
2022-10-06T22:33:18.357Z,100562.19
2022-10-06T22:35:23.692Z,100559.48
2022-10-06T22:37:29.097Z,100557.83
2022-10-06T22:39:35.287Z,100560.08
2022-10-06T22:41:40.701Z,100559.76
2022-10-06T22:43:46.079Z,100560.00
2022-10-06T22:45:51.435Z,100564.41
2022-10-06T22:47:56.745Z,100563.96
2022-10-06T22:50:02.168Z,100559.10
2022-10-06T22:52:07.546Z,100568.40
2022-10-06T22:54:19.135Z,100562.05
2022-10-06T22:56:24.817Z,100557.91
2022-10-06T22:58:30.528Z,100560.02
2022-10-06T23:00:37.225Z,100561.52
2022-10-06T23:02:42.486Z,100558.95
2022-10-06T23:04:50.376Z,100558.05
2022-10-06T23:06:55.628Z,100558.74
2022-10-06T23:09:03.285Z,100555.84
2022-10-06T23:11:10.291Z,100553.96
2022-10-06T23:13:15.621Z,100554.20
2022-10-06T23:15:21.439Z,100554.57
2022-10-06T23:17:26.821Z,100552.21
2022-10-06T23:19:32.326Z,100551.51
2022-10-06T23:21:37.849Z,100552.04
2022-10-06T23:23:43.349Z,100549.48
2022-10-06T23:25:49.979Z,100554.00
2022-10-06T23:27:55.392Z,100552.25
2022-10-06T23:30:00.788Z,100551.55
2022-10-06T23:32:05.686Z,100553.16
2022-10-06T23:34:10.493Z,100553.66
2022-10-06T23:36:15.283Z,100556.10
2022-10-06T23:38:20.078Z,100554.02
2022-10-06T23:40:24.875Z,100552.58
2022-10-06T23:42:29.705Z,100556.55
2022-10-06T23:44:34.488Z,100556.36
2022-10-06T23:46:39.300Z,100560.73
2022-10-06T23:48:44.292Z,100558.09
2022-10-06T23:50:59.072Z,100558.75
2022-10-06T23:53:03.863Z,100560.45
2022-10-06T23:55:09.423Z,100561.10
2022-10-06T23:57:14.231Z,100562.77
2022-10-06T23:59:19.016Z,100562.89
